Time;durP1;ratioP1;P1;durP2;ratioP2;P2;SDS_P1;SDS_P2;PMS_P1;PMS_P2;Temp;Humidity;BMP_temperature;BMP_pressure;BME280_temperature;BME280_humidity;BME280_pressure;Samples;Min_cycle;Max_cycle;Signal;HPM_P1;HPM_P2
2021/07/27 00:00:44;;;;;;;6.50;4.60;;;20.10;82.80;;;19.83;69.34;94777.59;5011793;28;20323;-82
2021/07/27 00:03:11;;;;;;;5.30;4.80;;;20.10;83.00;;;19.83;68.75;94772.25;5021485;28;20242;-82
2021/07/27 00:05:38;;;;;;;7.13;4.65;;;20.00;83.00;;;19.82;69.55;94776.78;5031346;28;20215;-81
2021/07/27 00:08:26;;;;;;;7.70;5.25;;;20.00;83.30;;;19.83;70.03;94774.91;4997893;28;20196;-82
2021/07/27 00:10:53;;;;;;;5.30;4.80;;;20.00;83.90;;;19.80;70.06;94756.81;5011575;28;20224;-82
2021/07/27 00:13:21;;;;;;;6.65;4.82;;;20.00;84.00;;;19.83;69.76;94745.66;5011589;28;20752;-82
2021/07/27 00:15:48;;;;;;;5.15;4.20;;;20.00;83.80;;;19.80;69.61;94731.00;4995316;28;20227;-82
2021/07/27 00:18:16;;;;;;;4.45;4.05;;;20.00;83.80;;;19.91;69.36;94736.41;5020356;28;20196;-81
2021/07/27 00:20:43;;;;;;;4.95;4.20;;;20.00;83.70;;;19.91;69.05;94729.25;4994151;28;20212;-82
2021/07/27 00:23:11;;;;;;;6.65;4.38;;;20.00;83.60;;;19.95;68.57;94727.66;5003272;28;20204;-82
2021/07/27 00:25:40;;;;;;;4.40;4.00;;;20.00;83.50;;;19.94;68.91;94730.59;4995866;28;20240;-81
2021/07/27 00:28:08;;;;;;;5.28;3.90;;;20.00;83.60;;;19.91;68.62;94723.09;5010364;28;20200;-83
2021/07/27 00:30:36;;;;;;;4.35;3.80;;;20.10;83.50;;;19.94;68.84;94725.25;5011240;28;20223;-82
2021/07/27 00:33:03;;;;;;;3.92;3.33;;;20.10;83.50;;;19.96;68.86;94737.25;5011117;28;20220;-82
2021/07/27 00:35:32;;;;;;;4.55;3.70;;;20.10;83.60;;;19.93;69.48;94748.44;5011619;28;20216;-83
2021/07/27 00:38:09;;;;;;;5.88;3.65;;;20.10;83.70;;;19.89;69.23;94771.28;5008308;28;20283;-82
2021/07/27 00:40:41;;;;;;;4.43;3.65;;;20.10;83.70;;;19.84;69.95;94788.00;5046280;28;20212;-81
2021/07/27 00:43:13;;;;;;;4.15;3.47;;;20.10;83.80;;;19.79;69.88;94795.91;5029825;28;20196;-82
2021/07/27 00:45:41;;;;;;;4.25;3.60;;;20.10;84.00;;;19.74;69.77;94774.59;5029298;28;20307;-82
2021/07/27 00:48:09;;;;;;;4.60;4.20;;;20.00;83.80;;;19.79;69.52;94768.50;5032355;28;20246;-82
2021/07/27 00:50:37;;;;;;;4.22;3.63;;;20.00;83.90;;;19.77;69.86;94759.97;5034859;28;20639;-83
2021/07/27 00:53:06;;;;;;;4.57;3.72;;;20.00;83.80;;;19.76;69.08;94758.34;5017634;28;20215;-82
2021/07/27 00:55:34;;;;;;;4.95;4.05;;;20.00;83.70;;;19.66;70.11;94759.91;5034178;28;20339;-83
2021/07/27 00:58:02;;;;;;;5.40;4.20;;;19.90;83.90;;;19.68;69.86;94765.75;5035029;28;20192;-83
2021/07/27 01:00:29;;;;;;;4.90;4.35;;;19.90;84.10;;;19.60;70.54;94752.09;5034740;28;20376;-83
2021/07/27 01:02:57;;;;;;;5.20;4.55;;;19.90;84.20;;;19.59;70.65;94758.47;5033632;28;20217;-82
2021/07/27 01:05:26;;;;;;;5.00;4.00;;;20.00;84.30;;;19.56;70.51;94757.13;5016738;28;20223;-82
2021/07/27 01:07:54;;;;;;;4.90;4.40;;;19.90;84.20;;;19.55;70.13;94765.38;5035171;28;20664;-85
2021/07/27 01:10:21;;;;;;;5.50;4.60;;;19.80;84.00;;;19.51;70.38;94770.38;4993399;28;20216;-85
2021/07/27 01:12:49;;;;;;;8.13;5.07;;;19.80;84.20;;;19.50;70.41;94766.91;5015316;28;20235;-85
2021/07/27 01:15:17;;;;;;;5.90;5.30;;;19.70;84.30;;;19.49;70.54;94765.31;5017105;28;20244;-85
2021/07/27 01:17:45;;;;;;;7.00;5.63;;;19.70;84.40;;;19.51;69.91;94773.03;5035131;28;20250;-85
2021/07/27 01:39:28;;;;;;;7.65;5.68;;;19.70;85.20;;;19.46;70.55;94804.91;5018419;28;20185;-85
2021/07/27 01:42:05;;;;;;;7.07;6.00;;;19.60;84.90;;;19.42;70.91;94801.97;4983539;28;20618;-86
2021/07/27 01:44:45;;;;;;;6.00;5.40;;;19.60;84.90;;;19.40;70.51;94795.28;5019646;28;20224;-84
2021/07/27 01:47:20;;;;;;;6.28;5.68;;;19.60;84.90;;;19.36;70.48;94795.78;5010190;28;20299;-85
2021/07/27 01:49:49;;;;;;;6.05;5.45;;;19.60;84.80;;;19.31;70.74;94792.25;5014516;28;20216;-86
2021/07/27 01:52:17;;;;;;;5.80;5.15;;;19.60;84.70;;;19.34;69.99;94805.84;5014589;28;20741;-85
2021/07/27 01:54:46;;;;;;;6.03;5.43;;;19.60;84.60;;;19.35;70.17;94809.31;5025420;28;20227;-85
2021/07/27 01:57:14;;;;;;;7.15;5.22;;;19.60;84.50;;;19.32;70.31;94810.63;5027136;28;20670;-85
2021/07/27 01:59:41;;;;;;;5.88;5.28;;;19.50;84.50;;;19.30;70.41;94812.72;5013670;28;20244;-85
2021/07/27 02:02:12;;;;;;;6.40;5.75;;;19.50;84.30;;;19.30;69.75;94818.03;4999573;28;20204;-86
2021/07/27 02:04:39;;;;;;;8.50;5.57;;;19.50;84.40;;;19.28;70.42;94825.47;5031017;28;20463;-85
2021/07/27 02:07:08;;;;;;;5.55;4.97;;;19.50;84.20;;;19.22;70.07;94809.72;5015360;28;20204;-86
2021/07/27 02:09:41;;;;;;;8.00;5.53;;;19.50;84.10;;;19.20;70.07;94820.59;5014401;28;20240;-86
2021/07/27 02:12:20;;;;;;;6.25;5.15;;;19.40;84.00;;;19.18;69.70;94822.69;5014403;28;20578;-85
2021/07/27 02:17:31;;;;;;;6.72;5.43;;;19.40;83.90;;;19.13;69.39;94834.06;5033132;28;20200;-86
2021/07/27 02:20:05;;;;;;;5.13;4.60;;;19.40;83.80;;;19.10;69.29;94836.41;5017530;28;20223;-85
2021/07/27 02:22:36;;;;;;;5.40;4.65;;;19.30;83.80;;;19.06;69.34;94840.63;5034117;28;20196;-85
2021/07/27 02:25:06;;;;;;;5.72;4.88;;;19.30;83.70;;;19.02;69.11;94832.34;5032937;28;20231;-85
2021/07/27 02:27:35;;;;;;;7.40;5.05;;;19.30;83.50;;;19.02;68.96;94846.44;5034029;28;20203;-86
2021/07/27 02:30:03;;;;;;;6.78;4.80;;;19.30;83.60;;;18.95;68.90;94837.03;5033901;28;20212;-86
2021/07/27 02:32:31;;;;;;;7.07;4.88;;;19.20;83.40;;;18.97;69.62;94848.22;5034162;28;20196;-86
2021/07/27 02:34:58;;;;;;;5.85;4.88;;;19.20;83.50;;;18.89;69.12;94844.09;5027742;28;20251;-86
2021/07/27 02:37:25;;;;;;;5.43;4.93;;;19.20;83.50;;;18.90;69.48;94845.72;5014410;28;20204;-85
2021/07/27 02:39:53;;;;;;;5.20;4.68;;;19.20;83.50;;;18.87;69.26;94844.34;5025659;28;20225;-86
2021/07/27 02:42:20;;;;;;;4.70;4.20;;;19.10;83.40;;;18.86;69.03;94844.59;4997887;28;20205;-86
2021/07/27 02:44:47;;;;;;;4.90;4.30;;;19.20;83.40;;;18.83;69.28;94845.09;4998671;28;20228;-86
2021/07/27 02:47:15;;;;;;;4.55;4.15;;;19.20;83.40;;;18.81;68.79;94845.34;5013970;28;20197;-86
2021/07/27 02:49:43;;;;;;;6.30;4.28;;;19.10;83.40;;;18.76;69.09;94844.44;5030110;28;20282;-85
2021/07/27 02:52:10;;;;;;;5.03;4.53;;;19.10;83.40;;;18.73;68.87;94838.56;5013899;28;20238;-86
2021/07/27 02:54:38;;;;;;;5.10;4.50;;;19.00;83.30;;;18.78;68.97;94845.81;5010665;28;20236;-86
2021/07/27 02:57:05;;;;;;;6.22;4.80;;;19.00;83.30;;;18.71;69.35;94837.22;5014711;28;20219;-85
2021/07/27 02:59:32;;;;;;;5.15;4.65;;;19.00;83.40;;;18.72;69.01;94844.97;4997335;28;20220;-85
2021/07/27 03:01:59;;;;;;;8.20;4.95;;;19.00;83.50;;;18.71;68.85;94839.88;5019876;28;20666;-85
2021/07/27 03:04:27;;;;;;;5.82;5.22;;;19.00;83.50;;;18.67;69.92;94857.34;5013808;28;20220;-86
2021/07/27 03:06:54;;;;;;;5.70;5.00;;;18.90;83.50;;;18.65;69.61;94844.31;4997555;28;20208;-85
2021/07/27 03:09:27;;;;;;;5.57;4.70;;;18.90;83.60;;;18.61;69.65;94848.50;4999123;28;20252;-86
2021/07/27 03:11:54;;;;;;;6.05;5.05;;;18.90;83.60;;;18.61;69.56;94847.69;5001030;28;20200;-85
2021/07/27 03:14:25;;;;;;;6.57;5.32;;;18.90;83.60;;;18.59;69.43;94849.78;5016079;28;20266;-86
2021/07/27 03:16:56;;;;;;;5.85;4.97;;;18.80;83.60;;;18.57;69.64;94847.38;5018597;28;20238;-86
2021/07/27 03:19:23;;;;;;;6.00;4.80;;;18.80;83.60;;;18.54;69.97;94847.84;5032907;28;20208;-86
2021/07/27 03:21:50;;;;;;;5.78;4.82;;;18.80;83.60;;;18.52;69.19;94850.75;5032665;28;20192;-86
2021/07/27 03:24:17;;;;;;;4.68;4.15;;;18.80;83.60;;;18.44;69.42;94843.19;5025430;28;20578;-85
2021/07/27 03:26:45;;;;;;;5.10;4.60;;;18.70;83.50;;;18.44;69.04;94837.88;5006730;28;20221;-84
2021/07/27 03:29:12;;;;;;;5.30;4.80;;;18.80;83.60;;;18.48;69.85;94843.53;5021651;28;20225;-84
2021/07/27 03:31:39;;;;;;;6.07;5.47;;;18.70;83.60;;;18.46;69.46;94840.31;5010970;28;20202;-84
2021/07/27 03:34:06;;;;;;;5.90;4.65;;;18.70;83.70;;;18.46;69.43;94843.78;5011598;28;20224;-84
2021/07/27 03:36:33;;;;;;;6.47;4.65;;;18.70;83.80;;;18.42;69.72;94842.66;5009011;28;20232;-85
2021/07/27 03:39:01;;;;;;;7.53;4.82;;;18.70;83.70;;;18.38;69.80;94839.69;5013480;28;20274;-84
2021/07/27 03:41:28;;;;;;;5.65;5.05;;;18.60;83.70;;;18.40;69.70;94848.19;5029339;28;21306;-85
2021/07/27 03:43:55;;;;;;;4.90;4.47;;;18.60;83.80;;;18.42;69.65;94857.78;5012655;28;20192;-84
2021/07/27 03:46:22;;;;;;;6.10;4.32;;;18.60;83.80;;;18.38;69.74;94841.53;4997090;28;20220;-84
2021/07/27 03:48:49;;;;;;;4.47;4.07;;;18.60;83.80;;;18.40;69.34;94850.06;5018405;28;20218;-84
2021/07/27 03:51:17;;;;;;;5.75;4.55;;;18.60;83.90;;;18.42;69.52;94852.47;5027120;28;20223;-85
2021/07/27 03:53:44;;;;;;;6.32;4.97;;;18.60;84.00;;;18.44;69.82;94853.03;4999093;28;20217;-83
2021/07/27 03:56:12;;;;;;;4.70;4.25;;;18.60;84.10;;;18.47;69.34;94857.84;5014131;28;20231;-85
2021/07/27 03:58:43;;;;;;;5.50;4.57;;;18.60;84.10;;;18.48;69.74;94862.94;5032247;28;20327;-85
2021/07/27 04:01:10;;;;;;;6.90;4.75;;;18.60;84.00;;;18.49;69.45;94861.88;5015422;28;20208;-85
2021/07/27 04:03:38;;;;;;;6.88;4.78;;;18.70;84.90;;;18.52;69.49;94877.31;5017317;28;20284;-86
2021/07/27 04:06:05;;;;;;;5.78;4.40;;;18.60;84.10;;;18.53;69.21;94870.97;5033836;28;20643;-85
2021/07/27 04:08:32;;;;;;;7.03;4.80;;;18.70;84.10;;;18.56;69.66;94869.69;5007784;28;20633;-86
2021/07/27 04:11:05;;;;;;;5.00;4.50;;;18.70;84.20;;;18.60;69.46;94876.09;5029742;28;20247;-86
2021/07/27 04:13:33;;;;;;;4.97;4.47;;;18.70;84.20;;;18.62;69.19;94874.03;5011528;28;20283;-86
2021/07/27 04:16:02;;;;;;;4.80;4.30;;;18.70;84.20;;;18.61;69.86;94866.31;5009744;28;20216;-86
2021/07/27 04:18:30;;;;;;;5.07;4.57;;;18.80;84.20;;;18.65;69.50;94859.44;4995543;28;20295;-85
2021/07/27 04:21:01;;;;;;;4.80;4.30;;;18.80;84.20;;;18.71;68.80;94858.47;5009890;28;20205;-84
2021/07/27 04:23:29;;;;;;;5.15;4.30;;;18.80;84.30;;;18.72;69.21;94860.06;5012026;28;20220;-85
2021/07/27 04:26:00;;;;;;;7.07;4.60;;;18.80;84.20;;;18.74;68.80;94852.66;5019223;28;20300;-84
2021/07/27 04:28:27;;;;;;;5.00;4.50;;;18.90;84.30;;;18.80;68.91;94859.66;4996288;28;20200;-85
2021/07/27 04:30:54;;;;;;;5.15;4.57;;;18.90;84.20;;;18.83;69.07;94863.69;5012751;28;20691;-84
2021/07/27 04:33:27;;;;;;;6.80;4.63;;;18.90;84.20;;;18.86;69.05;94879.16;5030982;28;20220;-84
2021/07/27 04:35:55;;;;;;;5.25;4.63;;;18.90;84.30;;;18.90;69.03;94866.19;5011561;28;20224;-85
2021/07/27 04:38:22;;;;;;;5.30;4.80;;;19.00;84.40;;;18.93;69.33;94871.03;5001410;28;20216;-85
2021/07/27 04:40:51;;;;;;;5.22;4.65;;;19.00;84.40;;;18.93;69.67;94879.00;5015151;28;20763;-85
2021/07/27 04:43:18;;;;;;;4.63;4.05;;;19.00;84.50;;;18.98;69.21;94879.06;5032003;28;20624;-85
2021/07/27 04:45:46;;;;;;;5.32;4.30;;;19.00;84.50;;;19.03;69.27;94889.78;5012841;28;20255;-84
2021/07/27 04:48:13;;;;;;;4.85;4.20;;;19.00;85.30;;;19.08;69.52;94887.19;4995372;28;20197;-85
2021/07/27 04:50:43;;;;;;;4.32;3.92;;;19.10;84.70;;;19.19;69.27;94891.56;5015712;28;20230;-86
2021/07/27 04:53:11;;;;;;;4.80;4.38;;;19.10;84.60;;;19.25;68.84;94887.13;5032162;28;20253;-85
2021/07/27 04:55:38;;;;;;;6.40;4.60;;;19.20;84.60;;;19.32;69.28;94886.94;5031052;28;20307;-85
2021/07/27 04:58:05;;;;;;;4.72;4.25;;;19.30;84.80;;;19.43;68.71;94888.69;4997148;28;20279;-86
2021/07/27 05:00:33;;;;;;;4.55;4.07;;;19.30;84.80;;;19.52;68.34;94886.38;4979743;28;20307;-85
2021/07/27 05:03:00;;;;;;;4.75;4.20;;;19.40;85.00;;;19.61;68.81;94892.06;4995909;28;20212;-85
2021/07/27 05:05:27;;;;;;;5.10;4.60;;;19.40;84.90;;;19.71;68.71;94884.19;4996954;28;20216;-85
2021/07/27 05:07:54;;;;;;;4.82;4.10;;;19.50;84.90;;;19.76;68.57;94884.25;5012513;28;20255;-86
2021/07/27 05:10:21;;;;;;;5.35;4.20;;;19.60;84.90;;;19.88;68.63;94883.31;5012188;28;20291;-84
2021/07/27 05:12:49;;;;;;;5.97;4.10;;;19.70;84.80;;;19.96;68.01;94896.19;4996073;28;20212;-85
2021/07/27 05:15:16;;;;;;;5.05;4.32;;;19.70;84.80;;;19.99;68.12;94888.50;5012213;28;20302;-86
2021/07/27 05:17:58;;;;;;;5.20;4.15;;;19.80;84.80;;;20.10;68.55;94894.75;5012123;28;20251;-85
2021/07/27 05:20:25;;;;;;;6.03;4.82;;;19.90;84.60;;;20.20;68.41;94906.53;5011982;28;20761;-85
2021/07/27 05:22:52;;;;;;;5.45;4.50;;;20.00;84.80;;;20.26;68.13;94908.16;5014967;28;20212;-86
2021/07/27 05:25:21;;;;;;;5.85;4.18;;;20.10;84.70;;;20.34;67.79;94913.03;5010951;28;20212;-87
2021/07/27 05:27:48;;;;;;;4.97;4.43;;;20.20;84.60;;;20.42;67.90;94907.25;5018478;28;20205;-86
2021/07/27 05:30:16;;;;;;;4.95;4.45;;;20.20;84.40;;;20.49;67.75;94912.34;5011635;28;20227;-86
2021/07/27 05:32:44;;;;;;;4.75;4.10;;;20.30;84.30;;;20.54;67.81;94919.59;5011874;28;20201;-86
2021/07/27 05:35:12;;;;;;;5.53;4.18;;;20.40;84.20;;;20.59;67.20;94922.28;5013090;28;20236;-85
2021/07/27 05:37:39;;;;;;;5.57;4.20;;;20.40;84.00;;;20.67;67.49;94921.84;5050552;28;20235;-85
2021/07/27 05:40:07;;;;;;;4.95;4.45;;;20.50;84.40;;;20.76;67.28;94916.84;5025796;28;20246;-86
2021/07/27 05:42:34;;;;;;;4.30;3.90;;;20.50;84.30;;;20.85;67.57;94919.84;5016831;28;20193;-86
2021/07/27 05:45:01;;;;;;;6.53;4.60;;;20.60;84.40;;;20.93;67.41;94916.72;4999370;28;20296;-86
2021/07/27 05:47:28;;;;;;;4.80;4.30;;;20.70;84.30;;;21.01;67.35;94920.78;5011662;28;20295;-86
2021/07/27 05:49:56;;;;;;;6.75;4.30;;;20.70;84.00;;;21.09;67.40;94922.94;5001661;28;20274;-85
2021/07/27 05:52:23;;;;;;;4.40;4.00;;;20.80;84.10;;;21.19;66.86;94917.66;5032321;28;20638;-85
2021/07/27 05:54:51;;;;;;;4.88;4.15;;;20.90;84.00;;;21.28;66.78;94924.09;5029768;28;20308;-85
2021/07/27 05:57:18;;;;;;;4.70;4.30;;;20.90;84.00;;;21.37;66.57;94928.94;5013143;28;20206;-85
2021/07/27 05:59:45;;;;;;;5.55;4.57;;;21.00;83.80;;;21.41;66.41;94927.34;4998266;28;20706;-85
2021/07/27 06:02:12;;;;;;;4.88;4.07;;;21.20;83.70;;;21.43;66.39;94926.06;4986930;28;20490;-85
2021/07/27 06:04:39;;;;;;;5.28;4.45;;;21.30;83.80;;;21.55;66.14;94931.16;5014239;28;20228;-85
2021/07/27 06:07:07;;;;;;;4.60;4.20;;;21.30;83.70;;;21.63;66.63;94934.44;5031090;28;20730;-85
2021/07/27 06:09:34;;;;;;;4.93;4.18;;;21.30;84.70;;;21.71;66.83;94925.91;5014456;28;20267;-85
2021/07/27 06:12:02;;;;;;;5.03;4.05;;;21.40;84.20;;;21.88;67.11;94942.53;5014196;28;20210;-85
2021/07/27 06:14:29;;;;;;;5.15;4.25;;;21.40;84.20;;;22.03;66.62;94941.78;4998363;28;20262;-85
2021/07/27 06:16:56;;;;;;;6.28;4.13;;;21.60;84.20;;;22.17;66.25;94941.28;5014520;28;20205;-85
2021/07/27 06:19:25;;;;;;;7.65;4.50;;;21.70;84.10;;;22.26;66.04;94945.00;5014707;28;20219;-85
2021/07/27 06:21:52;;;;;;;5.10;4.60;;;21.80;83.70;;;22.45;65.81;94950.69;5014282;28;20294;-86
2021/07/27 06:24:19;;;;;;;5.35;4.60;;;21.90;83.60;;;22.58;65.77;94946.69;5014282;28;20210;-85
2021/07/27 06:26:46;;;;;;;6.22;5.15;;;22.10;83.50;;;22.75;64.41;94949.09;5030659;28;20300;-84
2021/07/27 06:29:14;;;;;;;5.20;4.70;;;22.20;83.30;;;22.88;64.32;94961.13;5014072;28;20205;-85
2021/07/27 06:31:41;;;;;;;5.13;4.60;;;22.30;82.80;;;23.03;64.51;94961.13;5013889;28;20203;-86
2021/07/27 06:34:08;;;;;;;5.50;4.50;;;22.50;83.40;;;23.21;64.84;94958.19;5013688;28;20193;-85
2021/07/27 06:36:35;;;;;;;5.40;4.90;;;22.60;83.20;;;23.38;64.14;94952.53;4997652;28;20243;-85
2021/07/27 06:39:02;;;;;;;4.80;4.30;;;22.70;83.00;;;23.50;63.39;94956.50;4998040;28;20256;-84
2021/07/27 06:41:30;;;;;;;4.97;4.50;;;22.90;82.50;;;23.61;63.38;94965.28;5014038;28;20208;-85
2021/07/27 06:43:57;;;;;;;5.53;4.60;;;23.00;82.20;;;23.73;63.20;94962.31;5014006;28;20231;-85
2021/07/27 06:46:25;;;;;;;5.10;4.35;;;23.10;82.10;;;23.81;62.99;94967.09;5013702;28;20220;-85
2021/07/27 06:48:52;;;;;;;4.43;4.03;;;23.30;81.90;;;23.89;63.30;94963.03;4997588;28;20621;-86
2021/07/27 06:51:19;;;;;;;5.13;4.40;;;23.30;81.50;;;23.97;63.09;94970.53;5012472;28;20790;-85
2021/07/27 06:53:48;;;;;;;5.20;4.28;;;23.50;81.60;;;24.02;62.37;94975.06;5013883;28;20208;-85
2021/07/27 06:56:15;;;;;;;4.97;4.35;;;23.60;81.30;;;24.12;62.77;94966.97;5013233;28;20837;-86
2021/07/27 06:58:43;;;;;;;4.95;4.35;;;23.60;81.20;;;24.25;62.46;94978.16;5013824;28;20676;-85
2021/07/27 07:01:12;;;;;;;5.03;4.50;;;23.70;81.20;;;24.27;62.33;94974.13;4997248;28;20311;-85
2021/07/27 07:03:42;;;;;;;5.15;4.60;;;23.80;80.80;;;24.29;61.67;94980.03;5013080;28;20216;-85
2021/07/27 07:06:16;;;;;;;5.55;4.80;;;23.90;80.10;;;24.28;61.59;94986.44;5013467;28;20231;-86
2021/07/27 07:08:43;;;;;;;5.15;4.53;;;23.90;79.90;;;24.22;61.91;94984.88;5014101;28;20185;-86
2021/07/27 07:11:13;;;;;;;4.95;4.25;;;23.90;80.00;;;24.27;62.15;94986.75;5013507;28;20227;-86
2021/07/27 07:13:40;;;;;;;4.93;4.43;;;24.00;79.90;;;24.26;61.51;94996.63;5013937;28;20197;-85
2021/07/27 07:16:12;;;;;;;4.78;4.38;;;24.00;79.60;;;24.23;61.14;94985.66;5013476;28;20655;-86
2021/07/27 07:18:39;;;;;;;4.90;4.40;;;24.00;78.90;;;24.22;61.06;94989.44;5013194;28;20280;-85
2021/07/27 07:21:07;;;;;;;4.85;4.35;;;24.10;80.00;;;24.18;61.14;94994.56;5013326;28;20237;-86
2021/07/27 07:23:35;;;;;;;4.78;4.38;;;24.00;78.70;;;24.18;61.42;95005.28;5013584;28;20208;-86
2021/07/27 07:26:08;;;;;;;5.53;4.38;;;24.00;79.00;;;24.19;61.39;94995.34;4996893;28;20697;-86
2021/07/27 07:28:37;;;;;;;5.53;5.03;;;24.00;78.70;;;24.18;60.95;95001.78;5029442;28;20251;-85
2021/07/27 07:31:16;;;;;;;5.05;4.55;;;24.00;78.60;;;24.20;61.05;94997.75;4996874;28;20244;-86
2021/07/27 07:33:44;;;;;;;4.88;4.40;;;24.00;78.50;;;24.21;60.89;94996.69;5014288;28;20185;-85
2021/07/27 07:36:13;;;;;;;5.53;4.35;;;24.00;78.50;;;24.33;60.21;94998.22;5013041;28;20228;-86
2021/07/27 07:38:41;;;;;;;4.88;4.45;;;24.00;78.20;;;24.39;60.50;94999.78;5013079;28;20204;-85
2021/07/27 07:41:10;;;;;;;5.90;4.45;;;24.10;78.30;;;24.45;60.41;95002.16;5012669;28;20251;-86
2021/07/27 07:43:39;;;;;;;5.10;4.60;;;24.10;78.20;;;24.52;60.58;95015.25;5013192;28;20259;-85
2021/07/27 07:46:06;;;;;;;4.88;4.30;;;24.20;78.40;;;24.51;59.97;95007.50;5013042;28;20222;-86
2021/07/27 07:48:34;;;;;;;5.03;4.43;;;24.20;78.80;;;24.58;60.64;95016.84;5012826;28;20228;-86
2021/07/27 07:51:02;;;;;;;4.70;4.30;;;24.20;77.90;;;24.63;60.06;95016.00;4996544;28;20227;-86
2021/07/27 07:53:34;;;;;;;5.47;4.70;;;24.30;77.80;;;24.70;59.79;95021.09;5012912;28;20236;-86
2021/07/27 07:56:01;;;;;;;4.80;4.32;;;24.30;77.60;;;24.78;60.05;95023.97;5012454;28;20226;-86
2021/07/27 07:58:28;;;;;;;5.10;4.57;;;24.30;78.10;;;24.88;60.01;95019.63;5011985;28;20247;-86
2021/07/27 08:00:55;;;;;;;4.82;4.43;;;24.50;78.20;;;24.99;60.16;95017.66;5012680;28;20278;-86
2021/07/27 08:03:23;;;;;;;5.20;4.35;;;24.50;78.30;;;25.12;59.85;95029.63;5011820;28;20650;-86
2021/07/27 08:05:50;;;;;;;5.25;4.70;;;24.50;77.90;;;25.21;59.39;95025.25;5028889;28;20221;-86
2021/07/27 08:08:19;;;;;;;4.60;4.20;;;24.70;78.00;;;25.35;59.48;95023.53;4996516;28;20298;-86
2021/07/27 08:10:46;;;;;;;4.38;3.97;;;24.70;77.90;;;25.47;59.25;95020.47;5012580;28;20228;-87
2021/07/27 08:13:14;;;;;;;4.55;4.15;;;24.90;77.70;;;25.62;59.16;95027.59;4996222;28;20198;-86
2021/07/27 08:15:41;;;;;;;4.55;4.15;;;24.90;77.60;;;25.72;58.48;95032.06;5028924;28;20229;-87
2021/07/27 08:18:08;;;;;;;4.80;4.30;;;25.00;77.30;;;25.73;58.42;95022.88;5012674;28;20199;-86
2021/07/27 08:20:35;;;;;;;4.72;4.22;;;25.10;76.90;;;25.78;58.41;95028.22;5012476;28;20267;-87
2021/07/27 08:23:04;;;;;;;5.07;4.45;;;25.20;76.70;;;25.81;58.61;95034.91;5029123;28;20236;-86
2021/07/27 08:25:33;;;;;;;4.70;4.20;;;25.30;76.60;;;25.82;58.05;95033.81;5012625;28;20263;-87
2021/07/27 08:28:00;;;;;;;5.75;4.40;;;25.30;76.50;;;25.88;58.31;95038.84;5012563;28;20206;-86
2021/07/27 08:30:27;;;;;;;4.50;3.97;;;25.40;76.70;;;25.88;57.89;95033.47;5012743;28;20724;-85
2021/07/27 08:32:55;;;;;;;4.90;4.40;;;25.40;76.30;;;25.92;57.47;95038.28;4980150;28;20235;-86
2021/07/27 08:35:23;;;;;;;5.05;4.57;;;25.40;75.90;;;25.93;57.73;95050.59;5012114;28;20259;-86
2021/07/27 08:37:51;;;;;;;5.30;4.80;;;25.50;76.70;;;25.94;57.18;95038.78;4996282;28;20457;-87
2021/07/27 08:40:19;;;;;;;4.95;4.55;;;25.50;75.40;;;25.98;57.53;95040.63;5029142;28;20271;-87
2021/07/27 08:42:47;;;;;;;5.80;4.43;;;25.50;75.40;;;26.14;57.85;95029.72;5012310;28;20236;-87
2021/07/27 08:45:15;;;;;;;5.15;4.00;;;25.50;76.10;;;26.38;57.82;95021.63;5012278;28;20233;-87
2021/07/27 08:47:48;;;;;;;4.72;4.20;;;25.70;76.10;;;26.60;57.08;95021.03;5028531;28;20231;-86
2021/07/27 08:50:17;;;;;;;4.35;3.95;;;25.80;75.80;;;26.84;57.56;95020.16;5012122;28;20298;-86
2021/07/27 08:52:45;;;;;;;4.20;3.80;;;25.90;76.10;;;27.07;56.86;95023.06;5028584;28;20276;-86
2021/07/27 08:55:14;;;;;;;4.63;4.20;;;26.10;76.20;;;27.25;56.55;95014.13;5012379;28;20294;-87
2021/07/27 08:57:58;;;;;;;4.40;4.00;;;26.30;75.80;;;27.40;56.50;95015.75;5028470;28;20195;-87
2021/07/27 09:00:29;;;;;;;4.30;3.90;;;26.50;75.00;;;27.54;55.79;95017.69;5028245;28;20210;-87
2021/07/27 09:03:13;;;;;;;4.28;3.88;;;26.60;75.10;;;27.69;55.36;95017.41;5012445;28;20237;-87
2021/07/27 09:05:40;;;;;;;4.38;3.85;;;26.80;74.20;;;27.78;55.37;95010.25;5012228;28;20244;-87
2021/07/27 09:08:10;;;;;;;4.30;3.88;;;26.90;74.60;;;27.83;54.72;95011.22;5012320;28;20592;-87
2021/07/27 09:10:40;;;;;;;4.03;3.53;;;27.10;73.50;;;27.91;54.66;95007.84;5016785;28;20284;-86
2021/07/27 09:13:11;;;;;;;4.38;3.95;;;27.20;73.10;;;27.99;54.02;95009.03;4999507;28;20208;-87
2021/07/27 09:15:41;;;;;;;4.22;3.88;;;27.20;72.50;;;27.98;54.07;95004.72;5015485;28;20736;-87
2021/07/27 09:18:13;;;;;;;4.13;3.83;;;27.20;72.50;;;27.93;53.40;95008.34;5015876;28;20258;-87
2021/07/27 09:20:49;;;;;;;4.47;4.07;;;27.30;72.10;;;27.89;52.90;95020.81;5016122;28;20220;-87
2021/07/27 09:23:18;;;;;;;6.05;4.10;;;27.30;71.70;;;27.80;53.00;95013.41;5015753;28;20257;-87
2021/07/27 09:25:54;;;;;;;5.30;3.90;;;27.30;71.60;;;27.72;53.34;95008.75;4999040;28;20228;-87
2021/07/27 09:28:23;;;;;;;4.20;3.80;;;27.30;71.00;;;27.69;53.50;95012.03;5015760;28;20588;-86
2021/07/27 09:30:57;;;;;;;3.92;3.55;;;27.20;71.30;;;27.63;52.79;95011.31;4999236;28;20247;-87
2021/07/27 09:33:31;;;;;;;4.43;3.72;;;27.20;70.80;;;27.64;52.54;95007.53;5015863;28;20200;-87
2021/07/27 09:35:58;;;;;;;4.28;3.88;;;27.20;70.50;;;27.70;52.51;95008.25;4999417;28;20236;-86
2021/07/27 09:38:26;;;;;;;4.15;3.75;;;27.20;70.90;;;27.78;52.69;95012.94;5015564;28;20212;-87
2021/07/27 09:40:56;;;;;;;4.00;3.50;;;27.20;70.60;;;27.90;52.08;95015.13;5015192;28;20762;-86
2021/07/27 09:43:42;;;;;;;4.05;3.65;;;27.30;70.40;;;28.08;51.94;95015.34;5031448;28;20585;-85
2021/07/27 09:46:10;;;;;;;5.22;3.80;;;27.30;70.10;;;28.20;51.37;95002.16;5014927;28;20299;-86
2021/07/27 09:48:42;;;;;;;3.67;3.38;;;27.40;69.70;;;28.30;51.02;95001.13;5015080;28;20209;-85
2021/07/27 09:51:11;;;;;;;3.80;3.30;;;27.50;69.70;;;28.42;50.84;95000.63;5030767;28;20300;-86
2021/07/27 09:53:41;;;;;;;3.38;3.08;;;27.60;69.70;;;28.57;51.07;94992.16;5031426;28;20208;-87
2021/07/27 09:56:08;;;;;;;3.70;3.30;;;27.80;69.00;;;28.74;50.50;95004.25;4998723;28;20231;-87
2021/07/27 09:58:39;;;;;;;3.47;3.17;;;27.90;69.20;;;28.85;50.47;94999.41;5014880;28;20229;-87
2021/07/27 10:01:23;;;;;;;3.22;2.92;;;28.00;69.20;;;29.01;49.94;95005.22;5014956;28;20393;-87
2021/07/27 10:04:01;;;;;;;3.25;2.95;;;28.10;68.70;;;29.10;48.64;95002.59;4998866;28;20264;-87
2021/07/27 10:06:35;;;;;;;3.55;3.17;;;28.20;67.60;;;29.13;47.45;94993.88;5014853;28;20225;-87
2021/07/27 10:09:04;;;;;;;3.50;3.20;;;28.30;66.00;;;29.17;48.07;94989.44;5014732;28;20199;-86
2021/07/27 10:11:43;;;;;;;3.50;3.20;;;28.40;67.10;;;29.16;48.06;94994.06;5014662;28;20646;-87
2021/07/27 10:14:15;;;;;;;3.40;3.10;;;28.50;66.30;;;29.24;48.41;95003.31;5014750;28;20189;-87
2021/07/27 10:16:48;;;;;;;3.47;3.17;;;28.50;66.60;;;29.29;49.00;95000.47;5030941;28;20238;-87
2021/07/27 10:19:19;;;;;;;3.03;2.78;;;28.60;66.90;;;29.37;49.03;94999.75;5014315;28;20197;-86
2021/07/27 10:22:03;;;;;;;4.50;3.35;;;28.70;67.20;;;29.42;49.10;94990.72;4997401;28;20207;-87
2021/07/27 10:24:44;;;;;;;3.50;3.20;;;28.80;67.50;;;29.52;48.20;94989.66;5014583;28;20246;-88
2021/07/27 10:27:29;;;;;;;3.40;3.10;;;28.80;66.80;;;29.53;48.33;94985.88;5014435;28;20195;-87
2021/07/27 10:30:07;;;;;;;3.33;3.03;;;28.90;66.70;;;29.58;48.28;94996.53;5014257;28;20212;-87
2021/07/27 10:32:34;;;;;;;3.78;2.97;;;29.00;66.10;;;29.59;48.55;94989.19;5014543;28;20207;-87
2021/07/27 10:35:30;;;;;;;3.58;3.28;;;29.00;66.50;;;29.57;48.09;94986.81;4997856;28;20273;-87
2021/07/27 10:38:14;;;;;;;3.30;3.00;;;29.00;66.10;;;29.62;47.86;94983.97;5030836;28;20451;-87
2021/07/27 10:40:42;;;;;;;3.53;3.22;;;29.10;66.20;;;29.74;47.44;94982.59;5014076;28;20273;-87
2021/07/27 10:43:10;;;;;;;2.90;2.65;;;29.10;66.00;;;29.90;46.76;94978.38;5014163;28;20204;-87
2021/07/27 10:45:38;;;;;;;3.22;2.90;;;29.20;65.20;;;30.07;47.30;94977.63;5030247;28;20306;-87
2021/07/27 10:48:08;;;;;;;2.90;2.70;;;29.30;65.70;;;30.28;46.50;94977.81;4997899;28;20259;-87
2021/07/27 10:50:35;;;;;;;3.58;3.20;;;29.40;65.50;;;30.43;45.10;94975.75;5030358;28;20719;-87